sensor_id;sensor_type;location;lat;lon;timestamp;P1;durP1;ratioP1;P2;durP2;ratioP2
17714;SDS011;8977;50.902;4.314;2024-03-22T00:02:06;34.30;;;26.57;;
17714;SDS011;8977;50.902;4.314;2024-03-22T00:04:35;37.10;;;26.37;;
17714;SDS011;8977;50.902;4.314;2024-03-22T00:07:02;33.93;;;25.50;;
17714;SDS011;8977;50.902;4.314;2024-03-22T00:09:29;33.80;;;25.10;;
17714;SDS011;8977;50.902;4.314;2024-03-22T00:11:55;33.13;;;25.80;;
17714;SDS011;8977;50.902;4.314;2024-03-22T00:14:22;32.93;;;24.97;;
17714;SDS011;8977;50.902;4.314;2024-03-22T00:16:48;34.60;;;25.50;;
17714;SDS011;8977;50.902;4.314;2024-03-22T00:19:15;30.83;;;24.57;;
17714;SDS011;8977;50.902;4.314;2024-03-22T00:21:42;35.10;;;25.40;;
17714;SDS011;8977;50.902;4.314;2024-03-22T00:24:09;31.57;;;23.50;;
17714;SDS011;8977;50.902;4.314;2024-03-22T00:26:35;31.47;;;24.40;;
17714;SDS011;8977;50.902;4.314;2024-03-22T00:29:02;30.13;;;23.23;;
17714;SDS011;8977;50.902;4.314;2024-03-22T00:31:28;32.90;;;24.97;;
17714;SDS011;8977;50.902;4.314;2024-03-22T00:33:55;30.20;;;23.00;;
17714;SDS011;8977;50.902;4.314;2024-03-22T00:36:21;33.47;;;23.17;;
17714;SDS011;8977;50.902;4.314;2024-03-22T00:38:49;33.13;;;23.03;;
17714;SDS011;8977;50.902;4.314;2024-03-22T00:41:15;31.10;;;22.97;;
17714;SDS011;8977;50.902;4.314;2024-03-22T00:43:42;31.50;;;22.90;;
17714;SDS011;8977;50.902;4.314;2024-03-22T00:46:08;30.47;;;22.63;;
17714;SDS011;8977;50.902;4.314;2024-03-22T00:48:35;28.83;;;22.33;;
17714;SDS011;8977;50.902;4.314;2024-03-22T00:51:01;28.60;;;22.40;;
17714;SDS011;8977;50.902;4.314;2024-03-22T00:53:28;29.60;;;23.07;;
17714;SDS011;8977;50.902;4.314;2024-03-22T00:55:56;30.27;;;22.53;;
17714;SDS011;8977;50.902;4.314;2024-03-22T00:58:24;27.73;;;21.23;;
17714;SDS011;8977;50.902;4.314;2024-03-22T01:00:51;29.67;;;22.50;;
17714;SDS011;8977;50.902;4.314;2024-03-22T01:03:18;29.23;;;22.37;;
17714;SDS011;8977;50.902;4.314;2024-03-22T01:05:44;28.97;;;22.47;;
17714;SDS011;8977;50.902;4.314;2024-03-22T01:08:11;32.37;;;23.07;;
17714;SDS011;8977;50.902;4.314;2024-03-22T01:10:37;32.83;;;23.47;;
17714;SDS011;8977;50.902;4.314;2024-03-22T01:13:06;32.70;;;22.50;;
17714;SDS011;8977;50.902;4.314;2024-03-22T01:15:32;28.57;;;22.07;;
17714;SDS011;8977;50.902;4.314;2024-03-22T01:17:59;30.37;;;22.73;;
17714;SDS011;8977;50.902;4.314;2024-03-22T01:20:25;29.20;;;22.30;;
17714;SDS011;8977;50.902;4.314;2024-03-22T01:22:52;30.43;;;23.47;;
17714;SDS011;8977;50.902;4.314;2024-03-22T01:25:18;29.43;;;22.23;;
17714;SDS011;8977;50.902;4.314;2024-03-22T01:27:45;32.23;;;23.20;;
17714;SDS011;8977;50.902;4.314;2024-03-22T01:30:12;32.20;;;24.57;;
17714;SDS011;8977;50.902;4.314;2024-03-22T01:32:39;31.60;;;22.50;;
17714;SDS011;8977;50.902;4.314;2024-03-22T01:35:06;33.13;;;23.90;;
17714;SDS011;8977;50.902;4.314;2024-03-22T01:37:33;30.17;;;24.07;;
17714;SDS011;8977;50.902;4.314;2024-03-22T01:39:59;28.83;;;22.60;;
17714;SDS011;8977;50.902;4.314;2024-03-22T01:42:25;30.03;;;22.77;;
17714;SDS011;8977;50.902;4.314;2024-03-22T01:44:52;29.77;;;21.90;;
17714;SDS011;8977;50.902;4.314;2024-03-22T01:47:20;34.10;;;24.57;;
17714;SDS011;8977;50.902;4.314;2024-03-22T01:49:47;31.33;;;23.53;;
17714;SDS011;8977;50.902;4.314;2024-03-22T01:52:14;29.83;;;22.10;;
17714;SDS011;8977;50.902;4.314;2024-03-22T01:54:41;32.27;;;24.10;;
17714;SDS011;8977;50.902;4.314;2024-03-22T01:57:07;32.23;;;22.30;;
17714;SDS011;8977;50.902;4.314;2024-03-22T01:59:35;31.53;;;23.17;;
17714;SDS011;8977;50.902;4.314;2024-03-22T02:02:01;29.43;;;21.97;;
17714;SDS011;8977;50.902;4.314;2024-03-22T02:04:30;29.93;;;21.97;;
17714;SDS011;8977;50.902;4.314;2024-03-22T02:06:56;29.90;;;22.30;;
17714;SDS011;8977;50.902;4.314;2024-03-22T02:09:23;28.43;;;22.30;;
17714;SDS011;8977;50.902;4.314;2024-03-22T02:11:49;31.03;;;23.00;;
17714;SDS011;8977;50.902;4.314;2024-03-22T02:14:17;26.43;;;20.43;;
17714;SDS011;8977;50.902;4.314;2024-03-22T02:16:42;27.07;;;20.00;;
17714;SDS011;8977;50.902;4.314;2024-03-22T02:19:10;30.37;;;20.93;;
17714;SDS011;8977;50.902;4.314;2024-03-22T02:21:40;27.93;;;20.70;;
17714;SDS011;8977;50.902;4.314;2024-03-22T02:24:09;26.30;;;20.13;;
17714;SDS011;8977;50.902;4.314;2024-03-22T02:26:35;25.87;;;20.40;;
17714;SDS011;8977;50.902;4.314;2024-03-22T02:29:02;26.83;;;19.43;;
17714;SDS011;8977;50.902;4.314;2024-03-22T02:31:29;27.23;;;18.73;;
17714;SDS011;8977;50.902;4.314;2024-03-22T02:33:59;25.40;;;18.53;;
17714;SDS011;8977;50.902;4.314;2024-03-22T02:36:26;24.57;;;18.03;;
17714;SDS011;8977;50.902;4.314;2024-03-22T02:38:53;27.53;;;18.57;;
17714;SDS011;8977;50.902;4.314;2024-03-22T02:41:20;26.70;;;19.87;;
17714;SDS011;8977;50.902;4.314;2024-03-22T02:43:48;26.43;;;18.80;;
17714;SDS011;8977;50.902;4.314;2024-03-22T02:46:14;26.37;;;19.10;;
17714;SDS011;8977;50.902;4.314;2024-03-22T02:48:43;26.50;;;18.90;;
17714;SDS011;8977;50.902;4.314;2024-03-22T02:51:09;29.73;;;20.53;;
17714;SDS011;8977;50.902;4.314;2024-03-22T02:53:36;24.67;;;18.90;;
17714;SDS011;8977;50.902;4.314;2024-03-22T02:56:02;28.27;;;19.30;;
17714;SDS011;8977;50.902;4.314;2024-03-22T02:58:31;25.03;;;18.73;;
17714;SDS011;8977;50.902;4.314;2024-03-22T03:00:57;27.83;;;19.10;;
17714;SDS011;8977;50.902;4.314;2024-03-22T03:03:24;28.87;;;19.13;;
17714;SDS011;8977;50.902;4.314;2024-03-22T03:05:50;26.00;;;18.37;;
17714;SDS011;8977;50.902;4.314;2024-03-22T03:08:18;26.23;;;17.67;;
17714;SDS011;8977;50.902;4.314;2024-03-22T03:10:44;23.80;;;16.63;;
17714;SDS011;8977;50.902;4.314;2024-03-22T03:13:12;25.70;;;18.03;;
17714;SDS011;8977;50.902;4.314;2024-03-22T03:15:41;26.57;;;18.60;;
17714;SDS011;8977;50.902;4.314;2024-03-22T03:18:08;24.67;;;17.77;;
17714;SDS011;8977;50.902;4.314;2024-03-22T03:20:34;27.60;;;18.20;;
17714;SDS011;8977;50.902;4.314;2024-03-22T03:23:02;24.40;;;17.40;;
17714;SDS011;8977;50.902;4.314;2024-03-22T03:25:28;23.90;;;16.70;;
17714;SDS011;8977;50.902;4.314;2024-03-22T03:28:01;25.67;;;17.23;;
17714;SDS011;8977;50.902;4.314;2024-03-22T03:30:28;25.60;;;18.03;;
17714;SDS011;8977;50.902;4.314;2024-03-22T03:32:57;26.73;;;17.33;;
17714;SDS011;8977;50.902;4.314;2024-03-22T03:35:23;23.33;;;16.53;;
17714;SDS011;8977;50.902;4.314;2024-03-22T03:37:51;24.13;;;17.13;;
17714;SDS011;8977;50.902;4.314;2024-03-22T03:40:17;22.67;;;17.57;;
17714;SDS011;8977;50.902;4.314;2024-03-22T03:42:44;25.50;;;16.90;;
17714;SDS011;8977;50.902;4.314;2024-03-22T03:45:11;21.50;;;16.13;;
17714;SDS011;8977;50.902;4.314;2024-03-22T03:47:38;23.33;;;16.77;;
17714;SDS011;8977;50.902;4.314;2024-03-22T03:50:05;27.93;;;17.00;;
17714;SDS011;8977;50.902;4.314;2024-03-22T03:52:33;21.63;;;16.27;;
17714;SDS011;8977;50.902;4.314;2024-03-22T03:55:01;25.53;;;18.53;;
17714;SDS011;8977;50.902;4.314;2024-03-22T03:57:28;24.40;;;16.43;;
17714;SDS011;8977;50.902;4.314;2024-03-22T03:59:55;23.83;;;16.90;;
17714;SDS011;8977;50.902;4.314;2024-03-22T04:02:23;19.97;;;15.00;;
17714;SDS011;8977;50.902;4.314;2024-03-22T04:04:51;21.90;;;15.30;;
17714;SDS011;8977;50.902;4.314;2024-03-22T04:07:20;21.93;;;16.30;;
17714;SDS011;8977;50.902;4.314;2024-03-22T04:09:47;25.00;;;16.30;;
17714;SDS011;8977;50.902;4.314;2024-03-22T04:12:14;19.63;;;15.13;;
17714;SDS011;8977;50.902;4.314;2024-03-22T04:14:40;21.67;;;15.47;;
17714;SDS011;8977;50.902;4.314;2024-03-22T04:17:09;23.03;;;15.60;;
17714;SDS011;8977;50.902;4.314;2024-03-22T04:19:35;20.40;;;16.10;;
17714;SDS011;8977;50.902;4.314;2024-03-22T04:22:03;22.50;;;15.27;;
17714;SDS011;8977;50.902;4.314;2024-03-22T04:24:34;21.90;;;14.10;;
17714;SDS011;8977;50.902;4.314;2024-03-22T04:27:02;23.27;;;15.90;;
17714;SDS011;8977;50.902;4.314;2024-03-22T04:29:28;20.90;;;14.53;;
17714;SDS011;8977;50.902;4.314;2024-03-22T04:31:55;20.83;;;14.53;;
17714;SDS011;8977;50.902;4.314;2024-03-22T04:34:22;21.70;;;15.30;;
17714;SDS011;8977;50.902;4.314;2024-03-22T04:36:50;20.83;;;15.07;;
17714;SDS011;8977;50.902;4.314;2024-03-22T04:39:18;21.53;;;15.17;;
17714;SDS011;8977;50.902;4.314;2024-03-22T04:41:47;21.10;;;15.77;;
17714;SDS011;8977;50.902;4.314;2024-03-22T04:44:14;23.47;;;15.47;;
17714;SDS011;8977;50.902;4.314;2024-03-22T04:46:43;20.73;;;15.10;;
17714;SDS011;8977;50.902;4.314;2024-03-22T04:49:09;21.47;;;14.47;;
17714;SDS011;8977;50.902;4.314;2024-03-22T04:51:37;20.20;;;14.50;;
17714;SDS011;8977;50.902;4.314;2024-03-22T04:54:03;22.23;;;15.70;;
17714;SDS011;8977;50.902;4.314;2024-03-22T04:56:30;20.63;;;15.27;;
17714;SDS011;8977;50.902;4.314;2024-03-22T04:58:58;22.13;;;15.90;;
17714;SDS011;8977;50.902;4.314;2024-03-22T05:01:26;22.13;;;16.53;;
17714;SDS011;8977;50.902;4.314;2024-03-22T05:03:52;22.43;;;16.10;;
17714;SDS011;8977;50.902;4.314;2024-03-22T05:06:19;22.60;;;16.20;;
17714;SDS011;8977;50.902;4.314;2024-03-22T05:08:46;21.23;;;15.57;;
17714;SDS011;8977;50.902;4.314;2024-03-22T05:11:15;19.60;;;15.03;;
17714;SDS011;8977;50.902;4.314;2024-03-22T05:13:42;22.10;;;16.20;;
17714;SDS011;8977;50.902;4.314;2024-03-22T05:16:13;24.13;;;16.73;;
17714;SDS011;8977;50.902;4.314;2024-03-22T05:18:39;19.97;;;14.97;;
17714;SDS011;8977;50.902;4.314;2024-03-22T05:21:07;23.37;;;15.67;;
17714;SDS011;8977;50.902;4.314;2024-03-22T05:23:34;20.23;;;15.83;;
17714;SDS011;8977;50.902;4.314;2024-03-22T05:26:01;19.10;;;15.33;;
17714;SDS011;8977;50.902;4.314;2024-03-22T05:28:27;22.17;;;16.57;;
17714;SDS011;8977;50.902;4.314;2024-03-22T05:30:55;21.87;;;15.70;;
17714;SDS011;8977;50.902;4.314;2024-03-22T05:33:23;22.57;;;15.80;;
17714;SDS011;8977;50.902;4.314;2024-03-22T05:35:53;21.30;;;15.80;;
17714;SDS011;8977;50.902;4.314;2024-03-22T05:38:19;21.90;;;16.23;;
17714;SDS011;8977;50.902;4.314;2024-03-22T05:40:46;21.70;;;16.57;;
17714;SDS011;8977;50.902;4.314;2024-03-22T05:43:12;24.50;;;16.33;;
17714;SDS011;8977;50.902;4.314;2024-03-22T05:45:40;23.20;;;16.33;;
17714;SDS011;8977;50.902;4.314;2024-03-22T05:48:07;23.03;;;17.73;;
17714;SDS011;8977;50.902;4.314;2024-03-22T05:50:35;28.47;;;18.47;;
17714;SDS011;8977;50.902;4.314;2024-03-22T05:53:01;26.37;;;18.03;;
17714;SDS011;8977;50.902;4.314;2024-03-22T05:55:28;23.87;;;17.37;;
17714;SDS011;8977;50.902;4.314;2024-03-22T05:57:56;24.60;;;17.70;;
17714;SDS011;8977;50.902;4.314;2024-03-22T06:00:23;27.97;;;18.10;;
17714;SDS011;8977;50.902;4.314;2024-03-22T06:02:49;25.33;;;17.70;;
17714;SDS011;8977;50.902;4.314;2024-03-22T06:05:16;24.83;;;17.77;;
17714;SDS011;8977;50.902;4.314;2024-03-22T06:07:44;23.70;;;18.27;;
17714;SDS011;8977;50.902;4.314;2024-03-22T06:10:11;23.07;;;17.07;;
17714;SDS011;8977;50.902;4.314;2024-03-22T06:12:37;26.20;;;16.77;;
17714;SDS011;8977;50.902;4.314;2024-03-22T06:15:04;22.13;;;16.63;;
17714;SDS011;8977;50.902;4.314;2024-03-22T06:17:31;22.30;;;16.53;;
17714;SDS011;8977;50.902;4.314;2024-03-22T06:19:59;21.47;;;14.67;;
17714;SDS011;8977;50.902;4.314;2024-03-22T06:22:25;21.87;;;15.70;;
17714;SDS011;8977;50.902;4.314;2024-03-22T06:24:53;21.53;;;16.03;;
17714;SDS011;8977;50.902;4.314;2024-03-22T06:27:19;20.30;;;15.03;;
17714;SDS011;8977;50.902;4.314;2024-03-22T06:29:46;19.97;;;14.17;;
17714;SDS011;8977;50.902;4.314;2024-03-22T06:32:12;17.23;;;13.83;;
17714;SDS011;8977;50.902;4.314;2024-03-22T06:34:39;18.80;;;13.97;;
17714;SDS011;8977;50.902;4.314;2024-03-22T06:37:05;19.07;;;12.67;;
17714;SDS011;8977;50.902;4.314;2024-03-22T06:39:32;16.73;;;12.40;;
17714;SDS011;8977;50.902;4.314;2024-03-22T06:41:59;16.20;;;12.23;;
17714;SDS011;8977;50.902;4.314;2024-03-22T06:44:26;15.80;;;11.87;;
17714;SDS011;8977;50.902;4.314;2024-03-22T06:46:52;15.93;;;10.97;;
17714;SDS011;8977;50.902;4.314;2024-03-22T06:49:19;14.87;;;11.63;;
17714;SDS011;8977;50.902;4.314;2024-03-22T06:51:45;13.73;;;10.90;;
17714;SDS011;8977;50.902;4.314;2024-03-22T06:54:12;15.97;;;10.73;;
17714;SDS011;8977;50.902;4.314;2024-03-22T06:56:38;13.13;;;9.90;;
17714;SDS011;8977;50.902;4.314;2024-03-22T06:59:07;12.57;;;9.57;;
17714;SDS011;8977;50.902;4.314;2024-03-22T07:01:33;13.47;;;10.00;;
17714;SDS011;8977;50.902;4.314;2024-03-22T07:04:00;12.63;;;9.50;;
17714;SDS011;8977;50.902;4.314;2024-03-22T07:06:26;11.87;;;9.53;;
17714;SDS011;8977;50.902;4.314;2024-03-22T07:08:53;12.63;;;9.23;;
17714;SDS011;8977;50.902;4.314;2024-03-22T07:11:21;12.57;;;9.63;;
17714;SDS011;8977;50.902;4.314;2024-03-22T07:13:47;13.47;;;9.40;;
17714;SDS011;8977;50.902;4.314;2024-03-22T07:16:15;13.10;;;9.23;;
17714;SDS011;8977;50.902;4.314;2024-03-22T07:18:42;13.77;;;9.63;;
17714;SDS011;8977;50.902;4.314;2024-03-22T07:21:08;11.43;;;8.60;;
17714;SDS011;8977;50.902;4.314;2024-03-22T07:23:35;11.03;;;8.20;;
17714;SDS011;8977;50.902;4.314;2024-03-22T07:26:01;9.70;;;8.27;;
17714;SDS011;8977;50.902;4.314;2024-03-22T07:28:30;10.53;;;7.87;;
17714;SDS011;8977;50.902;4.314;2024-03-22T07:30:56;8.87;;;7.57;;
17714;SDS011;8977;50.902;4.314;2024-03-22T07:33:26;9.80;;;7.07;;
17714;SDS011;8977;50.902;4.314;2024-03-22T07:35:51;10.17;;;7.87;;
17714;SDS011;8977;50.902;4.314;2024-03-22T07:38:19;8.73;;;7.27;;
17714;SDS011;8977;50.902;4.314;2024-03-22T07:40:45;10.63;;;7.50;;
17714;SDS011;8977;50.902;4.314;2024-03-22T07:43:12;9.07;;;7.63;;
17714;SDS011;8977;50.902;4.314;2024-03-22T07:45:41;11.93;;;8.73;;
17714;SDS011;8977;50.902;4.314;2024-03-22T07:48:08;10.13;;;9.00;;
17714;SDS011;8977;50.902;4.314;2024-03-22T07:50:36;10.20;;;8.13;;
17714;SDS011;8977;50.902;4.314;2024-03-22T07:53:03;11.23;;;8.13;;
17714;SDS011;8977;50.902;4.314;2024-03-22T07:55:29;11.47;;;8.63;;
17714;SDS011;8977;50.902;4.314;2024-03-22T07:57:56;10.83;;;8.50;;
17714;SDS011;8977;50.902;4.314;2024-03-22T08:00:22;10.80;;;8.60;;
17714;SDS011;8977;50.902;4.314;2024-03-22T08:02:50;9.90;;;8.17;;
17714;SDS011;8977;50.902;4.314;2024-03-22T08:05:16;8.93;;;7.83;;
17714;SDS011;8977;50.902;4.314;2024-03-22T08:07:45;9.57;;;8.13;;
17714;SDS011;8977;50.902;4.314;2024-03-22T08:10:12;11.53;;;8.30;;
17714;SDS011;8977;50.902;4.314;2024-03-22T08:12:41;11.03;;;8.37;;
17714;SDS011;8977;50.902;4.314;2024-03-22T08:15:07;9.30;;;8.30;;
17714;SDS011;8977;50.902;4.314;2024-03-22T08:17:34;9.37;;;8.17;;
17714;SDS011;8977;50.902;4.314;2024-03-22T08:20:00;9.83;;;7.43;;
17714;SDS011;8977;50.902;4.314;2024-03-22T08:22:28;10.63;;;7.77;;
17714;SDS011;8977;50.902;4.314;2024-03-22T08:24:55;9.53;;;7.33;;
17714;SDS011;8977;50.902;4.314;2024-03-22T08:27:22;11.37;;;8.07;;
17714;SDS011;8977;50.902;4.314;2024-03-22T08:29:48;9.90;;;8.17;;
17714;SDS011;8977;50.902;4.314;2024-03-22T08:32:15;11.80;;;8.50;;
17714;SDS011;8977;50.902;4.314;2024-03-22T08:34:41;10.50;;;8.50;;
17714;SDS011;8977;50.902;4.314;2024-03-22T08:37:08;11.07;;;8.60;;
17714;SDS011;8977;50.902;4.314;2024-03-22T08:39:34;16.17;;;9.47;;
17714;SDS011;8977;50.902;4.314;2024-03-22T08:42:02;13.00;;;9.20;;
17714;SDS011;8977;50.902;4.314;2024-03-22T08:44:30;10.70;;;8.87;;
17714;SDS011;8977;50.902;4.314;2024-03-22T08:46:57;12.07;;;9.27;;
17714;SDS011;8977;50.902;4.314;2024-03-22T08:49:23;11.60;;;9.13;;
17714;SDS011;8977;50.902;4.314;2024-03-22T08:51:50;13.53;;;10.30;;
17714;SDS011;8977;50.902;4.314;2024-03-22T08:54:16;13.53;;;10.03;;
17714;SDS011;8977;50.902;4.314;2024-03-22T08:56:43;14.87;;;9.80;;
17714;SDS011;8977;50.902;4.314;2024-03-22T08:59:10;16.03;;;10.20;;
17714;SDS011;8977;50.902;4.314;2024-03-22T09:01:37;13.87;;;10.33;;
17714;SDS011;8977;50.902;4.314;2024-03-22T09:04:03;13.67;;;9.87;;
17714;SDS011;8977;50.902;4.314;2024-03-22T09:06:30;13.90;;;9.60;;
17714;SDS011;8977;50.902;4.314;2024-03-22T09:08:56;16.33;;;10.00;;
17714;SDS011;8977;50.902;4.314;2024-03-22T09:11:23;14.23;;;10.40;;
17714;SDS011;8977;50.902;4.314;2024-03-22T09:13:51;17.17;;;11.03;;
17714;SDS011;8977;50.902;4.314;2024-03-22T09:16:19;15.33;;;11.13;;
17714;SDS011;8977;50.902;4.314;2024-03-22T09:18:45;18.07;;;10.83;;
17714;SDS011;8977;50.902;4.314;2024-03-22T09:21:12;16.30;;;10.83;;
17714;SDS011;8977;50.902;4.314;2024-03-22T09:23:38;16.60;;;11.50;;
17714;SDS011;8977;50.902;4.314;2024-03-22T09:26:05;16.53;;;11.50;;
17714;SDS011;8977;50.902;4.314;2024-03-22T09:28:31;16.27;;;11.10;;
17714;SDS011;8977;50.902;4.314;2024-03-22T09:31:02;16.27;;;12.03;;
17714;SDS011;8977;50.902;4.314;2024-03-22T09:33:30;15.27;;;11.50;;
17714;SDS011;8977;50.902;4.314;2024-03-22T09:35:57;15.50;;;11.57;;
17714;SDS011;8977;50.902;4.314;2024-03-22T09:38:23;16.57;;;11.70;;
17714;SDS011;8977;50.902;4.314;2024-03-22T09:40:50;15.53;;;11.03;;
17714;SDS011;8977;50.902;4.314;2024-03-22T09:43:19;14.90;;;11.93;;
17714;SDS011;8977;50.902;4.314;2024-03-22T09:45:46;17.97;;;11.97;;
17714;SDS011;8977;50.902;4.314;2024-03-22T09:48:13;17.37;;;12.23;;
17714;SDS011;8977;50.902;4.314;2024-03-22T09:50:42;18.73;;;12.60;;
17714;SDS011;8977;50.902;4.314;2024-03-22T09:53:08;19.50;;;12.87;;
17714;SDS011;8977;50.902;4.314;2024-03-22T09:55:36;16.50;;;12.80;;
17714;SDS011;8977;50.902;4.314;2024-03-22T09:58:02;18.37;;;13.77;;
17714;SDS011;8977;50.902;4.314;2024-03-22T10:00:30;17.27;;;13.83;;
17714;SDS011;8977;50.902;4.314;2024-03-22T10:02:56;15.87;;;12.60;;
17714;SDS011;8977;50.902;4.314;2024-03-22T10:05:23;20.63;;;13.83;;
17714;SDS011;8977;50.902;4.314;2024-03-22T10:07:51;16.40;;;12.90;;
17714;SDS011;8977;50.902;4.314;2024-03-22T10:10:18;15.83;;;12.93;;
17714;SDS011;8977;50.902;4.314;2024-03-22T10:12:44;14.73;;;12.13;;
17714;SDS011;8977;50.902;4.314;2024-03-22T10:15:11;22.50;;;13.57;;
17714;SDS011;8977;50.902;4.314;2024-03-22T10:17:38;18.23;;;12.87;;
17714;SDS011;8977;50.902;4.314;2024-03-22T10:20:06;18.23;;;12.80;;
17714;SDS011;8977;50.902;4.314;2024-03-22T10:22:37;20.67;;;13.47;;
17714;SDS011;8977;50.902;4.314;2024-03-22T10:25:09;15.63;;;12.33;;
17714;SDS011;8977;50.902;4.314;2024-03-22T10:27:37;16.70;;;13.30;;
17714;SDS011;8977;50.902;4.314;2024-03-22T10:30:05;16.23;;;12.17;;
17714;SDS011;8977;50.902;4.314;2024-03-22T10:32:35;15.93;;;13.00;;
17714;SDS011;8977;50.902;4.314;2024-03-22T10:35:02;18.10;;;13.77;;
17714;SDS011;8977;50.902;4.314;2024-03-22T10:37:31;18.20;;;12.40;;
17714;SDS011;8977;50.902;4.314;2024-03-22T10:39:59;16.90;;;13.93;;
17714;SDS011;8977;50.902;4.314;2024-03-22T10:42:34;17.87;;;13.13;;
17714;SDS011;8977;50.902;4.314;2024-03-22T10:45:01;20.00;;;13.67;;
17714;SDS011;8977;50.902;4.314;2024-03-22T10:47:29;15.53;;;11.00;;
17714;SDS011;8977;50.902;4.314;2024-03-22T10:49:59;14.27;;;10.97;;
17714;SDS011;8977;50.902;4.314;2024-03-22T10:52:30;17.90;;;10.60;;
17714;SDS011;8977;50.902;4.314;2024-03-22T10:54:59;12.37;;;9.50;;
17714;SDS011;8977;50.902;4.314;2024-03-22T10:57:27;13.33;;;9.03;;
17714;SDS011;8977;50.902;4.314;2024-03-22T10:59:56;11.93;;;9.00;;
17714;SDS011;8977;50.902;4.314;2024-03-22T11:02:23;11.67;;;8.60;;
17714;SDS011;8977;50.902;4.314;2024-03-22T11:04:53;11.00;;;8.63;;
17714;SDS011;8977;50.902;4.314;2024-03-22T11:07:21;12.23;;;9.13;;
17714;SDS011;8977;50.902;4.314;2024-03-22T11:09:53;12.73;;;9.20;;
17714;SDS011;8977;50.902;4.314;2024-03-22T11:12:21;13.60;;;8.47;;
17714;SDS011;8977;50.902;4.314;2024-03-22T11:14:51;12.00;;;8.73;;
17714;SDS011;8977;50.902;4.314;2024-03-22T11:17:18;11.27;;;8.37;;
17714;SDS011;8977;50.902;4.314;2024-03-22T11:19:46;14.17;;;9.00;;
17714;SDS011;8977;50.902;4.314;2024-03-22T11:22:12;11.47;;;9.43;;
17714;SDS011;8977;50.902;4.314;2024-03-22T11:24:39;12.40;;;9.07;;
17714;SDS011;8977;50.902;4.314;2024-03-22T11:27:06;11.17;;;8.90;;
17714;SDS011;8977;50.902;4.314;2024-03-22T11:29:35;15.07;;;9.30;;
17714;SDS011;8977;50.902;4.314;2024-03-22T11:32:04;13.80;;;8.80;;
17714;SDS011;8977;50.902;4.314;2024-03-22T11:34:33;11.77;;;9.37;;
17714;SDS011;8977;50.902;4.314;2024-03-22T11:37:00;12.63;;;8.43;;
17714;SDS011;8977;50.902;4.314;2024-03-22T11:39:27;13.87;;;8.80;;
17714;SDS011;8977;50.902;4.314;2024-03-22T11:41:53;14.50;;;8.37;;
17714;SDS011;8977;50.902;4.314;2024-03-22T11:44:20;14.13;;;9.30;;
17714;SDS011;8977;50.902;4.314;2024-03-22T11:46:47;12.87;;;9.03;;
17714;SDS011;8977;50.902;4.314;2024-03-22T11:49:17;14.40;;;9.63;;
17714;SDS011;8977;50.902;4.314;2024-03-22T11:51:45;15.40;;;9.27;;
17714;SDS011;8977;50.902;4.314;2024-03-22T11:54:12;10.67;;;8.47;;
17714;SDS011;8977;50.902;4.314;2024-03-22T11:56:39;12.30;;;8.73;;
17714;SDS011;8977;50.902;4.314;2024-03-22T11:59:06;10.83;;;8.73;;
17714;SDS011;8977;50.902;4.314;2024-03-22T12:01:33;12.57;;;8.63;;
17714;SDS011;8977;50.902;4.314;2024-03-22T12:03:59;10.97;;;8.37;;
17714;SDS011;8977;50.902;4.314;2024-03-22T12:06:26;9.67;;;7.87;;
17714;SDS011;8977;50.902;4.314;2024-03-22T12:08:53;11.23;;;8.20;;
17714;SDS011;8977;50.902;4.314;2024-03-22T12:11:20;11.17;;;7.90;;
17714;SDS011;8977;50.902;4.314;2024-03-22T12:13:46;12.77;;;7.47;;
17714;SDS011;8977;50.902;4.314;2024-03-22T12:16:13;11.07;;;8.20;;
17714;SDS011;8977;50.902;4.314;2024-03-22T12:18:39;11.60;;;7.17;;
17714;SDS011;8977;50.902;4.314;2024-03-22T12:21:06;10.80;;;6.83;;
17714;SDS011;8977;50.902;4.314;2024-03-22T12:23:32;12.63;;;7.00;;
17714;SDS011;8977;50.902;4.314;2024-03-22T12:26:01;12.47;;;8.33;;
17714;SDS011;8977;50.902;4.314;2024-03-22T12:28:27;15.63;;;7.87;;
17714;SDS011;8977;50.902;4.314;2024-03-22T12:30:54;9.53;;;6.67;;
17714;SDS011;8977;50.902;4.314;2024-03-22T12:33:20;9.47;;;6.63;;
17714;SDS011;8977;50.902;4.314;2024-03-22T12:35:47;9.77;;;6.90;;
17714;SDS011;8977;50.902;4.314;2024-03-22T12:38:13;12.67;;;7.10;;
17714;SDS011;8977;50.902;4.314;2024-03-22T12:40:40;11.57;;;7.50;;
17714;SDS011;8977;50.902;4.314;2024-03-22T12:43:09;10.03;;;7.07;;
17714;SDS011;8977;50.902;4.314;2024-03-22T12:45:36;13.17;;;7.73;;
17714;SDS011;8977;50.902;4.314;2024-03-22T12:48:03;12.70;;;8.20;;
17714;SDS011;8977;50.902;4.314;2024-03-22T12:50:30;13.27;;;7.33;;
17714;SDS011;8977;50.902;4.314;2024-03-22T12:52:56;10.60;;;7.37;;
17714;SDS011;8977;50.902;4.314;2024-03-22T12:55:23;9.80;;;7.27;;
17714;SDS011;8977;50.902;4.314;2024-03-22T12:57:50;13.10;;;7.60;;
17714;SDS011;8977;50.902;4.314;2024-03-22T13:00:19;12.80;;;8.43;;
17714;SDS011;8977;50.902;4.314;2024-03-22T13:02:45;16.17;;;8.53;;
17714;SDS011;8977;50.902;4.314;2024-03-22T13:05:13;9.80;;;7.53;;
17714;SDS011;8977;50.902;4.314;2024-03-22T13:07:40;11.60;;;7.13;;
17714;SDS011;8977;50.902;4.314;2024-03-22T13:10:07;13.43;;;7.03;;
17714;SDS011;8977;50.902;4.314;2024-03-22T13:12:34;12.37;;;7.33;;
17714;SDS011;8977;50.902;4.314;2024-03-22T13:15:01;13.33;;;7.77;;
17714;SDS011;8977;50.902;4.314;2024-03-22T13:17:28;14.27;;;8.43;;
17714;SDS011;8977;50.902;4.314;2024-03-22T13:19:55;13.03;;;7.30;;
17714;SDS011;8977;50.902;4.314;2024-03-22T13:22:21;13.70;;;7.27;;
17714;SDS011;8977;50.902;4.314;2024-03-22T13:24:48;13.00;;;7.27;;
17714;SDS011;8977;50.902;4.314;2024-03-22T13:27:15;9.57;;;6.80;;
17714;SDS011;8977;50.902;4.314;2024-03-22T13:29:45;10.03;;;7.03;;
17714;SDS011;8977;50.902;4.314;2024-03-22T13:32:11;9.27;;;7.10;;
17714;SDS011;8977;50.902;4.314;2024-03-22T13:34:39;11.27;;;6.57;;
17714;SDS011;8977;50.902;4.314;2024-03-22T13:37:05;9.87;;;6.80;;
17714;SDS011;8977;50.902;4.314;2024-03-22T13:39:32;13.10;;;6.87;;
17714;SDS011;8977;50.902;4.314;2024-03-22T13:41:58;11.27;;;7.27;;
17714;SDS011;8977;50.902;4.314;2024-03-22T13:44:26;11.23;;;7.00;;
17714;SDS011;8977;50.902;4.314;2024-03-22T13:46:52;9.60;;;5.77;;
17714;SDS011;8977;50.902;4.314;2024-03-22T13:49:20;10.60;;;6.00;;
17714;SDS011;8977;50.902;4.314;2024-03-22T13:51:47;10.87;;;6.40;;
17714;SDS011;8977;50.902;4.314;2024-03-22T13:54:14;7.83;;;5.57;;
17714;SDS011;8977;50.902;4.314;2024-03-22T13:56:40;10.67;;;6.10;;
17714;SDS011;8977;50.902;4.314;2024-03-22T13:59:08;11.77;;;6.37;;
17714;SDS011;8977;50.902;4.314;2024-03-22T14:01:34;10.97;;;6.43;;
17714;SDS011;8977;50.902;4.314;2024-03-22T14:04:01;9.47;;;6.20;;
17714;SDS011;8977;50.902;4.314;2024-03-22T14:06:28;9.27;;;6.03;;
17714;SDS011;8977;50.902;4.314;2024-03-22T14:08:57;8.73;;;6.30;;
17714;SDS011;8977;50.902;4.314;2024-03-22T14:11:26;11.47;;;6.10;;
17714;SDS011;8977;50.902;4.314;2024-03-22T14:13:53;10.50;;;6.30;;
17714;SDS011;8977;50.902;4.314;2024-03-22T14:16:19;11.13;;;6.57;;
17714;SDS011;8977;50.902;4.314;2024-03-22T14:18:46;9.97;;;6.20;;
17714;SDS011;8977;50.902;4.314;2024-03-22T14:21:13;9.20;;;6.30;;
17714;SDS011;8977;50.902;4.314;2024-03-22T14:23:44;8.03;;;6.00;;
17714;SDS011;8977;50.902;4.314;2024-03-22T14:26:12;8.80;;;5.90;;
17714;SDS011;8977;50.902;4.314;2024-03-22T14:28:39;9.40;;;6.00;;
17714;SDS011;8977;50.902;4.314;2024-03-22T14:31:05;9.13;;;5.83;;
17714;SDS011;8977;50.902;4.314;2024-03-22T14:33:33;9.70;;;6.20;;
17714;SDS011;8977;50.902;4.314;2024-03-22T14:36:00;7.13;;;5.73;;
17714;SDS011;8977;50.902;4.314;2024-03-22T14:38:27;9.17;;;6.43;;
17714;SDS011;8977;50.902;4.314;2024-03-22T14:40:53;7.27;;;6.43;;